Time;durP1;ratioP1;P1;durP2;ratioP2;P2;SDS_P1;SDS_P2;PMS_P1;PMS_P2;Temp;Humidity;BMP_temperature;BMP_pressure;BME280_temperature;BME280_humidity;BME280_pressure;Samples;Min_cycle;Max_cycle;Signal;HPM_P1;HPM_P2
2023/11/21 00:00:25;;;;;;;4.13;1.60;;;;;;;10.71;52.85;99480.94;5029888;28;20112;-40
2023/11/21 00:02:51;;;;;;;3.17;1.92;;;;;;;10.47;53.49;99482.47;5010400;28;20045;-40
2023/11/21 00:05:16;;;;;;;4.20;2.20;;;;;;;10.52;53.65;99484.50;5010064;28;20079;-36
2023/11/21 00:07:43;;;;;;;5.53;2.00;;;;;;;10.66;53.24;99490.59;5010206;28;20182;-39
2023/11/21 00:10:10;;;;;;;7.43;2.40;;;;;;;10.62;53.88;99486.72;5010068;28;20373;-40
2023/11/21 00:12:36;;;;;;;10.77;2.60;;;;;;;10.49;54.01;99483.09;5009951;28;20737;-38
2023/11/21 00:15:05;;;;;;;4.30;1.90;;;;;;;10.34;54.62;99490.50;5010229;28;20139;-39
2023/11/21 00:17:30;;;;;;;7.00;2.40;;;;;;;10.28;55.10;99491.28;5009983;28;20040;-39
2023/11/21 00:19:55;;;;;;;6.07;2.22;;;;;;;10.20;55.86;99497.63;5010292;28;20030;-38
2023/11/21 00:22:21;;;;;;;4.72;2.35;;;;;;;10.14;56.73;99493.16;5014254;28;20176;-40
2023/11/21 00:24:47;;;;;;;4.10;2.55;;;;;;;9.82;57.14;99490.28;5014239;28;20049;-39
2023/11/21 00:27:13;;;;;;;8.13;3.30;;;;;;;9.95;57.15;99489.47;5013904;28;20308;-39
2023/11/21 00:29:38;;;;;;;5.93;2.67;;;;;;;9.52;58.63;99490.69;5013756;28;20465;-37
2023/11/21 00:32:05;;;;;;;5.85;3.10;;;;;;;9.73;58.37;99484.38;5014051;28;20037;-39
2023/11/21 00:34:31;;;;;;;3.95;2.47;;;;;;;9.57;58.65;99484.75;5014085;28;20026;-38
2023/11/21 00:36:56;;;;;;;4.95;2.65;;;;;;;9.51;58.71;99474.97;5014026;28;20036;-39
2023/11/21 00:39:22;;;;;;;6.43;2.70;;;;;;;9.19;59.80;99475.53;5013714;28;20018;-39
2023/11/21 00:41:48;;;;;;;8.45;2.95;;;;;;;9.33;60.47;99480.88;5013701;28;20466;-39
2023/11/21 00:44:13;;;;;;;7.68;3.00;;;;;;;9.51;60.35;99486.41;5013718;28;20140;-38
2023/11/21 00:46:39;;;;;;;4.47;2.67;;;;;;;9.75;59.10;99485.00;5013866;28;20030;-39
2023/11/21 00:49:04;;;;;;;4.50;2.88;;;;;;;9.76;59.22;99483.94;5014291;28;20064;-38
2023/11/21 00:51:30;;;;;;;7.65;2.97;;;;;;;9.38;60.40;99489.84;5013954;28;20457;-40
2023/11/21 00:53:55;;;;;;;7.13;3.20;;;;;;;9.03;61.54;99483.03;5014334;28;20049;-40
2023/11/21 00:56:21;;;;;;;5.53;3.22;;;;;;;9.07;61.72;99481.63;5014140;28;20493;-39
2023/11/21 00:58:49;;;;;;;6.45;3.15;;;;;;;8.88;62.45;99486.66;5014085;28;20025;-40
2023/11/21 01:01:18;;;;;;;6.30;3.33;;;;;;;8.90;62.72;99487.28;5020781;28;20049;-38
2023/11/21 01:03:46;;;;;;;5.73;3.30;;;;;;;9.11;62.14;99483.66;5037996;28;20033;-40
2023/11/21 01:06:11;;;;;;;6.85;3.75;;;;;;;8.99;62.04;99472.81;5054527;28;20825;-40
2023/11/21 01:08:37;;;;;;;7.72;3.50;;;;;;;8.64;63.46;99474.72;5053611;28;20029;-39
2023/11/21 01:11:03;;;;;;;9.63;4.25;;;;;;;8.77;63.38;99480.06;5053766;28;20046;-40
2023/11/21 01:13:29;;;;;;;7.30;3.65;;;;;;;8.77;63.34;99488.03;5053751;28;20410;-40
2023/11/21 01:15:55;;;;;;;7.78;4.10;;;;;;;8.77;63.40;99487.22;5053567;28;20393;-40
2023/11/21 01:18:21;;;;;;;7.63;3.70;;;;;;;8.12;65.46;99483.97;5053663;28;20049;-39
2023/11/21 01:20:46;;;;;;;6.75;3.70;;;;;;;8.25;65.52;99489.38;5052802;28;20069;-40
2023/11/21 01:23:15;;;;;;;11.82;4.55;;;;;;;8.03;66.55;99483.31;5053115;28;20024;-42
2023/11/21 01:25:41;;;;;;;8.75;3.97;;;;;;;8.27;65.89;99483.88;5053395;28;20099;-39
2023/11/21 01:28:06;;;;;;;7.63;4.15;;;;;;;8.14;66.14;99489.91;5053116;28;20439;-39
2023/11/21 01:30:32;;;;;;;8.27;3.70;;;;;;;8.18;65.81;99483.19;5052917;28;20422;-40
2023/11/21 01:32:59;;;;;;;9.02;3.88;;;;;;;8.13;65.87;99488.25;5050518;28;20022;-40
2023/11/21 01:35:24;;;;;;;6.07;3.47;;;;;;;7.74;67.37;99484.31;5053066;28;20496;-40
2023/11/21 01:37:49;;;;;;;8.35;3.83;;;;;;;7.56;68.27;99488.25;5053132;28;20021;-40
2023/11/21 01:40:15;;;;;;;10.40;3.70;;;;;;;7.62;68.64;99478.72;5053080;28;20021;-40
2023/11/21 01:42:43;;;;;;;10.10;4.18;;;;;;;7.44;69.19;99487.94;5053035;28;20043;-40
2023/11/21 01:45:09;;;;;;;7.65;3.85;;;;;;;7.55;69.08;99477.84;5053075;28;20028;-40
2023/11/21 01:47:35;;;;;;;6.72;3.80;;;;;;;6.95;70.95;99483.34;5051539;28;20507;-40
2023/11/21 01:50:04;;;;;;;8.20;4.05;;;;;;;7.10;70.24;99471.88;5052967;28;20169;-40
2023/11/21 01:52:29;;;;;;;6.95;3.80;;;;;;;7.32;69.43;99470.91;5040299;28;20021;-40
2023/11/21 01:54:55;;;;;;;6.75;4.05;;;;;;;7.13;70.63;99472.34;5032287;28;20036;-40
2023/11/21 01:57:21;;;;;;;9.68;3.88;;;;;;;7.28;69.37;99479.41;5032549;28;20032;-39
2023/11/21 01:59:48;;;;;;;10.85;4.55;;;;;;;7.41;69.52;99480.34;5032201;28;20485;-40
2023/11/21 02:02:14;;;;;;;8.50;4.05;;;;;;;7.31;69.47;99479.88;5032840;28;20183;-40
2023/11/21 02:04:39;;;;;;;7.40;3.90;;;;;;;7.17;69.64;99470.13;5032431;28;20018;-40
2023/11/21 02:07:08;;;;;;;11.38;4.60;;;;;;;7.11;69.65;99473.53;5032740;28;20107;-40
2023/11/21 02:09:34;;;;;;;7.47;4.60;;;;;;;7.04;70.58;99468.16;5046877;28;20021;-38
2023/11/21 02:12:00;;;;;;;10.20;4.20;;;;;;;7.24;69.74;99465.75;5052512;28;20023;-40
2023/11/21 02:14:27;;;;;;;8.10;4.47;;;;;;;6.84;70.85;99462.66;5052500;28;20094;-40
2023/11/21 02:16:53;;;;;;;6.72;4.00;;;;;;;6.81;70.84;99465.66;5052359;28;20025;-40
2023/11/21 02:19:25;;;;;;;8.82;4.70;;;;;;;6.85;70.45;99464.28;5052483;28;20035;-37
2023/11/21 02:21:52;;;;;;;8.48;4.60;;;;;;;6.83;70.24;99472.44;5049627;28;20532;-40
2023/11/21 02:24:23;;;;;;;7.80;4.50;;;;;;;6.70;71.09;99464.34;5032029;28;20108;-39
2023/11/21 02:26:52;;;;;;;8.30;4.20;;;;;;;6.98;70.33;99471.56;5032262;28;20059;-41
2023/11/21 02:29:21;;;;;;;10.57;4.55;;;;;;;6.70;71.88;99469.63;5039402;28;20108;-40
2023/11/21 02:31:48;;;;;;;8.18;4.57;;;;;;;6.58;72.08;99481.66;5051931;28;20396;-40
2023/11/21 02:34:15;;;;;;;8.60;4.72;;;;;;;6.32;73.60;99490.88;5052052;28;20033;-40
2023/11/21 02:36:42;;;;;;;10.07;4.55;;;;;;;6.32;73.82;99484.75;5052275;28;20111;-38
2023/11/21 02:39:08;;;;;;;10.60;4.57;;;;;;;6.37;73.53;99480.56;5051944;28;20036;-40
2023/11/21 02:41:34;;;;;;;10.15;4.88;;;;;;;6.28;73.40;99475.56;5051898;28;20028;-40
2023/11/21 02:44:00;;;;;;;8.73;4.43;;;;;;;6.57;72.43;99472.91;5051455;28;20108;-40
2023/11/21 02:46:25;;;;;;;7.28;4.40;;;;;;;6.31;73.35;99476.03;5051460;28;20059;-40
2023/11/21 02:48:51;;;;;;;9.90;5.00;;;;;;;6.00;74.47;99477.00;5051283;28;20024;-40
2023/11/21 02:51:16;;;;;;;10.40;5.80;;;;;;;5.92;74.00;99473.56;5051455;28;20036;-40
2023/11/21 02:53:41;;;;;;;10.15;5.00;;;;;;;5.98;75.14;99480.84;5051427;28;20532;-40
2023/11/21 02:56:07;;;;;;;10.38;5.35;;;;;;;6.12;73.44;99481.84;5051533;28;20079;-38
2023/11/21 02:58:33;;;;;;;9.50;5.25;;;;;;;5.92;73.76;99481.50;5051282;28;20028;-40
2023/11/21 03:00:58;;;;;;;9.70;5.70;;;;;;;6.21;72.95;99488.69;5051194;28;20049;-40
2023/11/21 03:03:24;;;;;;;14.32;5.70;;;;;;;6.33;72.40;99489.06;5051421;28;20031;-40
2023/11/21 03:05:49;;;;;;;9.52;5.15;;;;;;;6.47;72.29;99493.50;5050308;28;20488;-39
2023/11/21 03:08:15;;;;;;;12.52;5.32;;;;;;;6.24;72.58;99483.88;5051271;28;20036;-40
2023/11/21 03:10:40;;;;;;;8.73;5.30;;;;;;;6.26;72.98;99489.78;5051286;28;20499;-41
2023/11/21 03:13:06;;;;;;;9.35;5.00;;;;;;;6.37;72.18;99487.69;5051060;28;20037;-37
2023/11/21 03:15:32;;;;;;;9.15;4.93;;;;;;;6.39;71.48;99491.78;5051189;28;20032;-39
2023/11/21 03:17:58;;;;;;;12.38;5.28;;;;;;;6.53;71.35;99489.31;5051211;28;20028;-38
2023/11/21 03:20:23;;;;;;;9.77;5.22;;;;;;;6.31;72.54;99491.88;5051090;28;20048;-40
2023/11/21 03:22:48;;;;;;;9.30;5.30;;;;;;;6.40;72.29;99487.34;5051223;28;20023;-40
2023/11/21 03:25:17;;;;;;;8.10;5.00;;;;;;;6.33;72.75;99483.78;5050578;28;20070;-40
2023/11/21 03:27:44;;;;;;;9.75;5.20;;;;;;;6.36;72.68;99478.09;5050768;28;20035;-40
2023/11/21 03:30:10;;;;;;;9.65;5.28;;;;;;;6.35;72.68;99490.50;5050665;28;20723;-41
2023/11/21 03:32:36;;;;;;;9.85;5.20;;;;;;;6.38;72.30;99479.59;5051156;28;20091;-40
2023/11/21 03:35:02;;;;;;;8.63;5.00;;;;;;;6.54;71.89;99491.78;5050615;28;20033;-37
2023/11/21 03:37:28;;;;;;;7.82;5.60;;;;;;;6.50;71.76;99479.94;5050865;28;20104;-40
2023/11/21 03:39:55;;;;;;;11.25;4.90;;;;;;;6.50;71.76;99489.69;5050622;28;20112;-40
2023/11/21 03:42:20;;;;;;;8.57;5.18;;;;;;;6.59;71.25;99485.97;5050438;28;20044;-38
2023/11/21 03:44:46;;;;;;;9.27;5.30;;;;;;;6.48;72.01;99489.88;5050563;28;20021;-40
2023/11/21 03:47:11;;;;;;;12.30;6.10;;;;;;;6.57;71.58;99486.13;5050747;28;20021;-40
2023/11/21 03:49:37;;;;;;;9.18;5.05;;;;;;;6.59;71.90;99488.59;5050686;28;20021;-38
2023/11/21 03:52:03;;;;;;;11.32;5.80;;;;;;;6.48;71.77;99483.78;5044640;28;20091;-39
2023/11/21 03:54:28;;;;;;;11.80;5.57;;;;;;;6.26;73.27;99489.78;5030067;28;20465;-39
2023/11/21 03:56:54;;;;;;;10.68;5.07;;;;;;;6.20;73.54;99487.84;5030068;28;20029;-39
2023/11/21 03:59:19;;;;;;;9.90;5.18;;;;;;;6.09;74.44;99488.28;5030622;28;20104;-39
2023/11/21 04:01:44;;;;;;;9.05;5.00;;;;;;;6.21;73.20;99502.72;5038114;28;20420;-38
2023/11/21 04:04:10;;;;;;;11.63;5.65;;;;;;;6.43;72.12;99502.81;5031451;28;20446;-38
2023/11/21 04:06:37;;;;;;;14.98;7.03;;;;;;;6.40;72.36;99508.47;5030100;28;20032;-39
2023/11/21 04:09:04;;;;;;;15.70;6.85;;;;;;;6.61;71.65;99507.75;5030637;28;20036;-39
2023/11/21 04:11:29;;;;;;;12.40;5.97;;;;;;;6.43;72.90;99500.16;5030430;28;20443;-39
2023/11/21 04:13:55;;;;;;;13.52;6.07;;;;;;;6.26;73.73;99500.38;5030272;28;20488;-39
2023/11/21 04:16:20;;;;;;;12.82;6.63;;;;;;;6.08;73.86;99507.81;5030188;28;20021;-39
2023/11/21 04:18:46;;;;;;;13.95;6.00;;;;;;;5.94;74.79;99508.56;5030298;28;20021;-38
2023/11/21 04:21:11;;;;;;;12.07;6.22;;;;;;;5.97;75.01;99516.97;5030456;28;20017;-38
2023/11/21 04:23:37;;;;;;;10.95;6.20;;;;;;;5.86;75.01;99512.09;5050522;28;20024;-38
2023/11/21 04:26:02;;;;;;;10.63;5.82;;;;;;;5.84;74.96;99496.41;5049755;28;20499;-38
2023/11/21 04:28:28;;;;;;;11.60;6.00;;;;;;;5.96;74.26;99496.84;5048541;28;20040;-39
2023/11/21 04:30:54;;;;;;;11.85;5.50;;;;;;;6.36;73.06;99509.81;5049915;28;20048;-40
2023/11/21 04:33:19;;;;;;;10.20;5.65;;;;;;;6.05;75.01;99522.22;5049622;28;20017;-40
2023/11/21 04:35:45;;;;;;;13.27;6.28;;;;;;;6.37;76.00;99517.56;5050555;28;20021;-39
2023/11/21 04:38:10;;;;;;;10.52;5.95;;;;;;;6.25;75.01;99508.47;5050078;28;20025;-39
2023/11/21 04:40:36;;;;;;;15.63;6.10;;;;;;;6.30;73.97;99505.25;5050050;28;20031;-39
2023/11/21 04:43:01;;;;;;;16.40;6.40;;;;;;;6.36;73.14;99515.94;5049757;28;20782;-39
2023/11/21 04:45:27;;;;;;;13.32;6.65;;;;;;;6.23;74.26;99519.22;5050259;28;20052;-39
2023/11/21 04:47:52;;;;;;;12.18;6.63;;;;;;;6.36;73.80;99515.09;5050020;28;20024;-39
2023/11/21 04:50:18;;;;;;;15.32;6.60;;;;;;;6.35;72.54;99519.59;5045531;28;20021;-39
2023/11/21 04:52:44;;;;;;;12.80;6.28;;;;;;;6.28;72.39;99520.50;5044675;28;20372;-38
2023/11/21 04:55:10;;;;;;;11.98;6.20;;;;;;;6.28;72.52;99517.84;5032429;28;20377;-38
2023/11/21 04:57:37;;;;;;;13.02;6.65;;;;;;;6.46;72.49;99515.69;5044617;28;20032;-40
2023/11/21 05:00:05;;;;;;;12.25;7.13;;;;;;;6.56;72.38;99513.56;5049713;28;20027;-39
2023/11/21 05:02:31;;;;;;;16.20;7.88;;;;;;;6.30;72.85;99513.19;5048466;28;20053;-40
2023/11/21 05:04:57;;;;;;;15.95;7.70;;;;;;;5.94;74.45;99508.56;5049569;28;20024;-40
2023/11/21 05:07:22;;;;;;;16.70;8.73;;;;;;;6.06;74.65;99496.59;5051673;28;20032;-39
2023/11/21 05:09:48;;;;;;;20.98;8.52;;;;;;;5.99;73.90;99493.84;5052910;28;20629;-40
2023/11/21 05:12:14;;;;;;;17.52;8.52;;;;;;;6.13;74.18;99504.59;5048593;28;20029;-40
2023/11/21 05:14:40;;;;;;;16.40;8.63;;;;;;;6.10;73.97;99511.09;5032377;28;20029;-39
2023/11/21 05:17:05;;;;;;;17.58;9.20;;;;;;;6.28;73.93;99518.66;5032308;28;20026;-41
2023/11/21 05:19:32;;;;;;;17.27;8.68;;;;;;;6.53;72.43;99521.88;5032473;28;20033;-39
2023/11/21 05:21:58;;;;;;;15.70;8.38;;;;;;;6.65;72.18;99519.59;5032399;28;20551;-37
2023/11/21 05:24:24;;;;;;;17.33;8.88;;;;;;;6.52;72.12;99530.81;5032428;28;20025;-41
2023/11/21 05:26:49;;;;;;;19.08;8.30;;;;;;;6.15;73.50;99534.31;5033408;28;20136;-41
2023/11/21 05:29:14;;;;;;;17.85;8.07;;;;;;;5.83;74.69;99523.84;5033229;28;20032;-40
2023/11/21 05:31:40;;;;;;;15.35;8.63;;;;;;;6.18;73.78;99528.69;5032994;28;20025;-39
2023/11/21 05:34:06;;;;;;;19.02;8.60;;;;;;;6.09;74.29;99525.28;5033561;28;20477;-42
2023/11/21 05:36:31;;;;;;;18.90;7.93;;;;;;;5.98;74.62;99528.38;5034111;28;20098;-40
2023/11/21 05:38:56;;;;;;;17.55;8.70;;;;;;;6.51;81.42;99523.06;5034082;28;20029;-39
2023/11/21 05:41:23;;;;;;;17.02;8.82;;;;;;;8.16;90.59;99525.00;5033702;28;20984;-42
2023/11/21 05:43:48;;;;;;;25.23;11.77;;;;;;;9.52;87.58;99527.06;5033736;28;20052;-41
2023/11/21 05:46:14;;;;;;;16.40;8.60;;;;;;;10.47;81.66;99525.06;5033890;28;20100;-40
2023/11/21 05:48:39;;;;;;;22.55;9.68;;;;;;;10.94;70.16;99533.69;5033408;28;20444;-40
2023/11/21 05:51:08;;;;;;;23.65;9.90;;;;;;;10.83;61.77;99531.69;5033699;28;20033;-40
2023/11/21 05:53:33;;;;;;;16.17;9.13;;;;;;;10.96;60.48;99536.16;5032519;28;20049;-40
2023/11/21 05:55:58;;;;;;;16.45;8.88;;;;;;;10.85;58.69;99526.16;5032690;28;20138;-41
2023/11/21 05:58:24;;;;;;;23.15;10.05;;;;;;;10.75;58.24;99523.94;5033004;28;20056;-40
2023/11/21 06:00:49;;;;;;;18.80;9.52;;;;;;;10.58;57.17;99528.91;5032418;28;20574;-40
2023/11/21 06:03:15;;;;;;;17.17;9.15;;;;;;;10.43;58.02;99523.00;5032308;28;20025;-37
2023/11/21 06:05:40;;;;;;;18.23;9.07;;;;;;;10.41;57.24;99528.50;5032507;28;20083;-41
2023/11/21 06:08:07;;;;;;;22.45;9.82;;;;;;;10.57;57.25;99538.72;5033756;28;20078;-39
2023/11/21 06:10:32;;;;;;;18.75;9.32;;;;;;;10.72;57.83;99541.16;5049785;28;20146;-41
2023/11/21 06:12:58;;;;;;;26.60;11.57;;;;;;;11.26;56.04;99540.94;5052200;28;20025;-40
2023/11/21 06:15:23;;;;;;;19.00;10.30;;;;;;;11.63;54.88;99539.31;5052453;28;20020;-40
2023/11/21 06:17:52;;;;;;;13.15;7.40;;;;;;;12.19;51.70;99520.84;5052178;28;20090;-39
2023/11/21 06:20:18;;;;;;;22.35;7.45;;;;;;;12.47;56.12;99528.34;5052445;28;20021;-42
2023/11/21 06:22:45;;;;;;;12.75;7.22;;;;;;;12.58;53.40;99529.47;5052523;28;20489;-42
2023/11/21 06:25:15;;;;;;;17.80;8.02;;;;;;;12.90;52.24;99543.50;5052270;28;20025;-42
2023/11/21 06:27:42;;;;;;;17.70;8.70;;;;;;;13.24;51.95;99536.72;5052373;28;20164;-42
2023/11/21 06:30:09;;;;;;;18.30;8.73;;;;;;;13.45;49.53;99534.63;5051357;28;20025;-43
2023/11/21 06:32:36;;;;;;;21.10;8.75;;;;;;;13.31;49.99;99531.31;5050884;28;20032;-43
2023/11/21 06:35:04;;;;;;;15.73;8.65;;;;;;;13.40;49.46;99537.16;5051185;28;20029;-43
2023/11/21 06:37:31;;;;;;;13.95;8.15;;;;;;;13.37;48.46;99530.41;5052026;28;20021;-44
2023/11/21 06:39:58;;;;;;;17.02;8.07;;;;;;;13.44;48.55;99531.13;5051944;28;20036;-42
2023/11/21 06:42:24;;;;;;;28.90;13.57;;;;;;;13.33;52.84;99534.56;5052002;28;20475;-42
2023/11/21 06:44:53;;;;;;;19.33;9.98;;;;;;;13.24;49.35;99535.91;5052159;28;20079;-44
2023/11/21 06:47:24;;;;;;;19.27;10.05;;;;;;;13.47;49.19;99529.84;5051879;28;20025;-41
2023/11/21 06:49:50;;;;;;;26.10;11.15;;;;;;;12.70;50.21;99533.88;5051729;28;20026;-43
2023/11/21 06:52:15;;;;;;;22.08;9.85;;;;;;;13.01;49.08;99529.41;5051976;28;20043;-44
2023/11/21 06:54:41;;;;;;;18.52;9.55;;;;;;;13.09;48.72;99520.25;5040617;28;20474;-41
2023/11/21 06:57:07;;;;;;;18.60;9.20;;;;;;;12.66;49.42;99521.16;5031688;28;20029;-40
2023/11/21 06:59:33;;;;;;;24.50;10.52;;;;;;;12.52;49.74;99521.31;5031667;28;20101;-43
2023/11/21 07:01:58;;;;;;;22.38;10.43;;;;;;;12.04;50.77;99531.84;5031285;28;20049;-44
2023/11/21 07:04:25;;;;;;;19.20;10.32;;;;;;;12.62;49.91;99528.00;5031372;28;20409;-42
2023/11/21 07:06:53;;;;;;;27.08;11.10;;;;;;;12.69;49.08;99526.06;5031519;28;20516;-42
2023/11/21 07:09:21;;;;;;;25.15;11.68;;;;;;;12.40;49.77;99541.78;5031870;28;20021;-41
2023/11/21 07:11:48;;;;;;;24.55;10.25;;;;;;;13.24;49.25;99535.91;5032427;28;20036;-41
2023/11/21 07:14:13;;;;;;;22.42;10.60;;;;;;;13.55;48.13;99539.41;5031962;28;20032;-41
2023/11/21 07:16:38;;;;;;;18.77;10.15;;;;;;;13.56;47.59;99551.75;5032431;28;20021;-41
2023/11/21 07:19:07;;;;;;;22.30;9.73;;;;;;;13.83;47.01;99542.28;5032173;28;20043;-46
2023/11/21 07:21:36;;;;;;;18.60;9.77;;;;;;;14.04;46.57;99548.13;5032389;28;20111;-41
2023/11/21 07:24:06;;;;;;;22.40;9.80;;;;;;;14.10;45.77;99544.53;5032345;28;20099;-42
2023/11/21 07:26:31;;;;;;;22.88;9.38;;;;;;;14.12;45.76;99541.63;5032371;28;20079;-42
2023/11/21 07:28:57;;;;;;;19.60;10.25;;;;;;;14.02;45.53;99539.53;5031804;28;20319;-40
2023/11/21 07:31:23;;;;;;;21.27;9.60;;;;;;;13.85;45.58;99539.38;5031047;28;20037;-40
2023/11/21 07:33:49;;;;;;;18.17;9.93;;;;;;;13.41;46.93;99528.91;5031357;28;20479;-42
2023/11/21 07:36:15;;;;;;;17.35;9.77;;;;;;;13.45;47.13;99530.06;5032051;28;20053;-41
2023/11/21 07:38:44;;;;;;;19.50;9.73;;;;;;;13.57;47.44;99523.94;5031678;28;20508;-42
2023/11/21 07:41:10;;;;;;;23.10;11.23;;;;;;;14.08;46.81;99547.41;5031654;28;20108;-41
2023/11/21 07:43:36;;;;;;;22.80;10.13;;;;;;;14.37;46.14;99536.84;5031702;28;20037;-42
2023/11/21 07:46:03;;;;;;;17.83;10.02;;;;;;;14.92;45.74;99542.88;5031578;28;20021;-39
2023/11/21 07:48:29;;;;;;;19.75;10.35;;;;;;;15.15;44.42;99541.97;5031359;28;20777;-40
2023/11/21 07:50:55;;;;;;;24.50;11.05;;;;;;;15.59;43.35;99545.78;5031221;28;20018;-41
2023/11/21 07:53:21;;;;;;;22.65;13.10;;;;;;;16.09;41.84;99552.28;5031351;28;20025;-43
2023/11/21 07:55:47;;;;;;;25.70;12.65;;;;;;;16.35;42.69;99550.78;5031393;28;20422;-44
2023/11/21 07:58:13;;;;;;;19.67;10.32;;;;;;;16.72;41.01;99546.72;5031186;28;20057;-42
2023/11/21 08:00:39;;;;;;;16.73;9.77;;;;;;;16.78;40.61;99545.72;5031265;28;20021;-42
2023/11/21 08:03:05;;;;;;;15.90;8.18;;;;;;;16.89;40.77;99549.41;5031080;28;20032;-42
2023/11/21 08:05:31;;;;;;;13.57;7.60;;;;;;;16.86;40.27;99542.63;5031703;28;20086;-40
2023/11/21 08:07:57;;;;;;;11.65;6.85;;;;;;;17.07;39.56;99541.00;5031229;28;20029;-41
2023/11/21 08:10:22;;;;;;;12.40;6.60;;;;;;;17.22;39.99;99543.06;5031620;28;20402;-41
2023/11/21 08:12:48;;;;;;;11.05;6.35;;;;;;;17.20;39.56;99542.50;5031220;28;20030;-43
2023/11/21 08:15:14;;;;;;;12.05;6.53;;;;;;;17.32;39.60;99537.78;5031402;28;20052;-42
2023/11/21 08:17:39;;;;;;;14.60;7.80;;;;;;;17.12;39.56;99537.59;5030867;28;20036;-41
2023/11/21 08:20:06;;;;;;;10.98;6.38;;;;;;;17.64;38.64;99538.91;5031185;28;20024;-41
2023/11/21 08:22:34;;;;;;;11.32;6.95;;;;;;;18.14;37.79;99543.97;5030936;28;20568;-43
2023/11/21 08:24:59;;;;;;;9.23;6.00;;;;;;;18.55;37.19;99540.72;5031333;28;20026;-40
2023/11/21 08:27:25;;;;;;;8.57;5.90;;;;;;;18.77;36.56;99543.22;5031113;28;20029;-41
2023/11/21 08:29:52;;;;;;;10.90;5.22;;;;;;;19.05;35.78;99541.22;5031055;28;20029;-39
2023/11/21 08:32:18;;;;;;;11.18;5.35;;;;;;;19.06;36.26;99537.47;5030798;28;20504;-42
2023/11/21 08:34:44;;;;;;;7.60;5.00;;;;;;;19.01;36.10;99543.66;5030660;28;20021;-44
2023/11/21 08:37:10;;;;;;;9.20;4.78;;;;;;;18.88;36.34;99536.84;5031027;28;20068;-44
2023/11/21 08:39:37;;;;;;;9.65;4.78;;;;;;;19.09;36.15;99526.13;5030975;28;20030;-41
2023/11/21 08:55:25;;;;;;;8.95;5.65;;;;;;;19.32;35.03;99505.97;5149980;27;20759;-28
2023/11/21 08:57:50;;;;;;;12.65;6.63;;;;;;;19.31;35.45;99502.47;5150264;27;20030;-31
2023/11/21 09:00:19;;;;;;;11.23;5.40;;;;;;;19.48;35.82;99496.03;5150226;27;20042;-27
2023/11/21 09:02:45;;;;;;;12.27;5.75;;;;;;;19.90;35.55;99481.50;5150245;27;20029;-28
2023/11/21 09:05:11;;;;;;;7.63;5.35;;;;;;;20.12;34.00;99489.28;5149755;27;20106;-28
2023/11/21 09:07:38;;;;;;;10.68;5.28;;;;;;;20.47;33.93;99476.78;5149392;27;20027;-28
2023/11/21 09:10:05;;;;;;;10.90;5.40;;;;;;;20.62;32.99;99476.75;5149505;27;20023;-28
2023/11/21 09:12:32;;;;;;;7.72;5.28;;;;;;;20.52;32.06;99468.63;5149772;27;20423;-27
2023/11/21 09:14:57;;;;;;;10.10;5.43;;;;;;;20.11;32.53;99466.06;5150154;27;20034;-28
2023/11/21 09:17:24;;;;;;;9.23;5.90;;;;;;;20.31;32.94;99463.31;5149415;27;20459;-28
2023/11/21 09:19:52;;;;;;;8.43;5.30;;;;;;;19.85;33.67;99462.59;5149656;27;20015;-32
2023/11/21 09:22:18;;;;;;;8.73;5.60;;;;;;;19.10;34.56;99457.66;5149760;27;20015;-27
2023/11/21 09:24:43;;;;;;;10.48;4.97;;;;;;;19.29;34.26;99455.25;5149035;27;20025;-28
2023/11/21 09:27:09;;;;;;;9.20;5.80;;;;;;;19.86;33.65;99438.03;5149192;27;20084;-28
2023/11/21 09:29:36;;;;;;;8.30;5.60;;;;;;;20.22;33.35;99446.06;5149730;27;20026;-28
2023/11/21 09:32:03;;;;;;;11.95;5.65;;;;;;;19.70;33.49;99445.31;5149266;27;20023;-29
2023/11/21 09:34:28;;;;;;;8.30;5.68;;;;;;;19.18;34.38;99448.22;5149419;27;20054;-29
2023/11/21 09:36:53;;;;;;;12.20;5.10;;;;;;;19.56;33.59;99432.63;5149291;27;20055;-27
2023/11/21 09:39:19;;;;;;;7.47;5.10;;;;;;;19.63;34.42;99433.13;5148703;27;20072;-29
2023/11/21 09:41:51;;;;;;;9.60;5.70;;;;;;;19.66;33.60;99435.31;5149242;27;20056;-29
2023/11/21 09:44:33;;;;;;;10.73;5.78;;;;;;;20.05;33.36;99440.16;5149117;27;20023;-28
2023/11/21 09:46:59;;;;;;;15.48;5.95;;;;;;;20.13;32.66;99436.09;5149432;27;20031;-27
2023/11/21 09:49:26;;;;;;;8.45;5.65;;;;;;;19.85;32.97;99435.59;5149081;27;20050;-27
2023/11/21 09:51:57;;;;;;;9.05;5.07;;;;;;;19.27;34.40;99431.25;5149172;27;20022;-29
2023/11/21 09:54:22;;;;;;;9.23;4.80;;;;;;;19.79;33.68;99426.69;5146744;27;20096;-28
2023/11/21 09:56:50;;;;;;;6.80;4.90;;;;;;;19.89;33.38;99417.75;5135181;27;20023;-29
2023/11/21 09:59:15;;;;;;;9.82;5.70;;;;;;;20.06;33.49;99414.75;5135137;27;20026;-28
2023/11/21 10:01:42;;;;;;;11.40;5.40;;;;;;;20.14;32.57;99406.06;5135277;27;20019;-30
2023/11/21 10:04:11;;;;;;;10.82;4.95;;;;;;;19.93;33.74;99405.31;5135135;27;20015;-30
2023/11/21 10:06:45;;;;;;;;;;;;;;;19.72;33.66;99405.38;5135361;27;20080;-28
2023/11/21 10:09:13;;;;;;;11.68;5.38;;;;;;;19.87;33.27;99392.91;5135117;27;19957;-29
2023/11/21 10:11:43;;;;;;;8.55;5.68;;;;;;;19.39;33.57;99385.13;5134961;27;20030;-28
2023/11/21 10:14:12;;;;;;;11.13;5.88;;;;;;;19.75;34.03;99381.63;5135128;27;20019;-28
2023/11/21 10:16:39;;;;;;;10.50;6.80;;;;;;;20.15;32.96;99369.88;5134922;27;20023;-29
2023/11/21 10:19:06;;;;;;;12.30;6.45;;;;;;;19.67;33.38;99361.34;5134855;27;20027;-30
2023/11/21 10:21:33;;;;;;;17.23;6.50;;;;;;;19.20;33.91;99360.56;5134653;27;20034;-29
2023/11/21 10:23:58;;;;;;;9.63;5.75;;;;;;;19.30;33.87;99368.66;5134827;27;20102;-27
2023/11/21 10:26:26;;;;;;;11.27;5.72;;;;;;;19.61;33.79;99357.84;5134954;27;20106;-28
2023/11/21 10:28:58;;;;;;;16.27;6.50;;;;;;;19.39;34.62;99363.53;5134881;27;20019;-27
2023/11/21 10:31:26;;;;;;;12.65;7.18;;;;;;;19.95;33.78;99359.16;5134276;27;20041;-30
2023/11/21 10:33:52;;;;;;;13.75;6.32;;;;;;;19.64;33.20;99351.09;5134726;27;20023;-29
2023/11/21 10:36:27;;;;;;;8.00;5.68;;;;;;;19.45;32.99;99353.56;5134324;27;20493;-28
2023/11/21 10:38:54;;;;;;;9.70;5.45;;;;;;;19.65;32.62;99350.03;5134056;27;20023;-32
2023/11/21 10:41:20;;;;;;;9.63;6.10;;;;;;;19.72;33.25;99348.69;5134557;27;20030;-29
2023/11/21 10:43:46;;;;;;;10.73;6.20;;;;;;;19.84;33.04;99345.69;5133583;27;20023;-28
2023/11/21 10:46:11;;;;;;;9.30;6.05;;;;;;;19.62;33.06;99347.88;5115731;27;20023;-29
2023/11/21 10:48:37;;;;;;;12.90;5.45;;;;;;;19.83;32.96;99346.75;5134017;27;20015;-27
2023/11/21 10:51:09;;;;;;;10.82;5.53;;;;;;;20.18;32.70;99328.84;5134116;27;20016;-27
2023/11/21 10:53:41;;;;;;;11.20;6.13;;;;;;;20.10;32.89;99324.81;5133588;27;20104;-29
2023/11/21 10:56:11;;;;;;;9.77;5.97;;;;;;;20.29;32.66;99333.06;5133922;27;20035;-27
2023/11/21 10:58:38;;;;;;;8.90;5.75;;;;;;;20.53;32.45;99329.72;5133527;27;20110;-27
2023/11/21 11:01:06;;;;;;;11.00;5.70;;;;;;;20.82;32.18;99331.72;5133846;27;20067;-28
2023/11/21 11:03:35;;;;;;;10.13;5.72;;;;;;;21.02;32.02;99322.69;5133688;27;20019;-30
2023/11/21 11:06:02;;;;;;;8.98;5.88;;;;;;;20.79;31.54;99325.00;5132969;27;20080;-28
2023/11/21 11:08:28;;;;;;;12.25;5.68;;;;;;;20.88;31.78;99323.28;5132950;27;20027;-28
2023/11/21 11:10:54;;;;;;;9.52;5.60;;;;;;;20.25;31.91;99310.41;5133469;27;20034;-30
2023/11/21 11:13:20;;;;;;;10.95;5.70;;;;;;;20.16;31.94;99303.97;5133677;27;20068;-29
2023/11/21 11:15:49;;;;;;;10.75;5.80;;;;;;;20.14;32.69;99314.25;5133000;27;20470;-29
2023/11/21 11:18:16;;;;;;;10.32;6.20;;;;;;;20.26;32.42;99308.53;5133761;27;20019;-28
2023/11/21 11:20:45;;;;;;;8.52;5.50;;;;;;;20.13;32.87;99292.94;5133665;27;20033;-27
2023/11/21 11:23:47;;;;;;;8.52;5.75;;;;;;;20.15;32.43;99286.16;5133744;27;20018;-30
2023/11/21 11:26:28;;;;;;;11.80;6.05;;;;;;;19.87;32.96;99283.03;5133646;27;20031;-29
2023/11/21 11:29:13;;;;;;;10.63;6.05;;;;;;;19.45;33.81;99276.09;5133501;27;20019;-27
2023/11/21 11:31:52;;;;;;;9.13;5.90;;;;;;;19.23;33.77;99262.13;5133540;27;20058;-28
2023/11/21 11:34:32;;;;;;;8.85;5.28;;;;;;;18.94;33.76;99255.44;5133251;27;20015;-26
2023/11/21 11:37:06;;;;;;;;;;;;;;;19.10;33.97;99237.34;5133710;27;20098;-28
2023/11/21 11:39:45;;;;;;;9.25;5.40;;;;;;;18.32;35.04;99224.91;5133423;27;19907;-32
2023/11/21 11:42:15;;;;;;;9.02;5.53;;;;;;;18.13;35.82;99208.44;5132854;27;20015;-28